sensor_id;sensor_type;location;lat;lon;timestamp;P1;durP1;ratioP1;P2;durP2;ratioP2
77146;SDS011;66121;52.584;9.694;2023-10-13T00:02:33;27.50;;;13.80;;
77146;SDS011;66121;52.584;9.694;2023-10-13T00:05:19;32.35;;;14.10;;
77146;SDS011;66121;52.584;9.694;2023-10-13T00:08:05;31.52;;;15.80;;
77146;SDS011;66121;52.584;9.694;2023-10-13T00:10:50;32.83;;;15.25;;
77146;SDS011;66121;52.584;9.694;2023-10-13T00:13:36;31.08;;;14.68;;
77146;SDS011;66121;52.584;9.694;2023-10-13T00:16:34;29.58;;;16.02;;
77146;SDS011;66121;52.584;9.694;2023-10-13T00:19:23;31.38;;;13.52;;
77146;SDS011;66121;52.584;9.694;2023-10-13T00:22:10;29.38;;;13.48;;
77146;SDS011;66121;52.584;9.694;2023-10-13T00:24:56;30.15;;;14.38;;
77146;SDS011;66121;52.584;9.694;2023-10-13T00:27:48;32.05;;;15.27;;
77146;SDS011;66121;52.584;9.694;2023-10-13T00:30:37;29.63;;;14.02;;
77146;SDS011;66121;52.584;9.694;2023-10-13T00:33:23;27.38;;;13.95;;
77146;SDS011;66121;52.584;9.694;2023-10-13T00:36:08;29.88;;;14.98;;
77146;SDS011;66121;52.584;9.694;2023-10-13T00:39:02;26.55;;;13.63;;
77146;SDS011;66121;52.584;9.694;2023-10-13T00:41:52;27.00;;;13.95;;
77146;SDS011;66121;52.584;9.694;2023-10-13T00:44:42;28.40;;;12.98;;
77146;SDS011;66121;52.584;9.694;2023-10-13T00:47:29;26.50;;;13.27;;
77146;SDS011;66121;52.584;9.694;2023-10-13T00:50:20;31.73;;;14.52;;
77146;SDS011;66121;52.584;9.694;2023-10-13T00:53:06;29.35;;;14.07;;
77146;SDS011;66121;52.584;9.694;2023-10-13T00:55:52;31.13;;;14.57;;
77146;SDS011;66121;52.584;9.694;2023-10-13T00:58:41;30.88;;;14.98;;
77146;SDS011;66121;52.584;9.694;2023-10-13T01:01:26;29.45;;;14.82;;
77146;SDS011;66121;52.584;9.694;2023-10-13T01:04:18;30.90;;;15.05;;
77146;SDS011;66121;52.584;9.694;2023-10-13T01:07:04;31.70;;;14.95;;
77146;SDS011;66121;52.584;9.694;2023-10-13T01:09:53;27.95;;;13.82;;
77146;SDS011;66121;52.584;9.694;2023-10-13T01:12:39;36.22;;;16.00;;
77146;SDS011;66121;52.584;9.694;2023-10-13T01:15:27;37.20;;;17.02;;
77146;SDS011;66121;52.584;9.694;2023-10-13T01:18:15;33.88;;;15.77;;
77146;SDS011;66121;52.584;9.694;2023-10-13T01:21:04;32.72;;;15.75;;
77146;SDS011;66121;52.584;9.694;2023-10-13T01:23:50;33.05;;;15.55;;
77146;SDS011;66121;52.584;9.694;2023-10-13T01:26:36;32.88;;;17.55;;
77146;SDS011;66121;52.584;9.694;2023-10-13T01:29:25;34.17;;;15.63;;
77146;SDS011;66121;52.584;9.694;2023-10-13T01:32:23;36.83;;;18.42;;
77146;SDS011;66121;52.584;9.694;2023-10-13T01:35:09;38.45;;;17.10;;
77146;SDS011;66121;52.584;9.694;2023-10-13T01:37:55;43.13;;;17.88;;
77146;SDS011;66121;52.584;9.694;2023-10-13T01:40:41;38.67;;;18.38;;
77146;SDS011;66121;52.584;9.694;2023-10-13T01:43:28;39.60;;;18.20;;
77146;SDS011;66121;52.584;9.694;2023-10-13T01:46:13;46.50;;;17.65;;
77146;SDS011;66121;52.584;9.694;2023-10-13T01:49:00;43.70;;;19.25;;
77146;SDS011;66121;52.584;9.694;2023-10-13T01:51:48;44.97;;;19.48;;
77146;SDS011;66121;52.584;9.694;2023-10-13T01:54:33;43.38;;;20.50;;
77146;SDS011;66121;52.584;9.694;2023-10-13T01:57:19;42.67;;;19.10;;
77146;SDS011;66121;52.584;9.694;2023-10-13T02:00:05;44.10;;;19.85;;
77146;SDS011;66121;52.584;9.694;2023-10-13T02:03:04;47.90;;;22.13;;
77146;SDS011;66121;52.584;9.694;2023-10-13T02:05:49;46.28;;;20.70;;
77146;SDS011;66121;52.584;9.694;2023-10-13T02:08:38;53.20;;;23.65;;
77146;SDS011;66121;52.584;9.694;2023-10-13T02:11:25;54.80;;;22.63;;
77146;SDS011;66121;52.584;9.694;2023-10-13T02:14:11;46.78;;;21.73;;
77146;SDS011;66121;52.584;9.694;2023-10-13T02:16:57;50.08;;;21.52;;
77146;SDS011;66121;52.584;9.694;2023-10-13T02:19:58;44.47;;;20.75;;
77146;SDS011;66121;52.584;9.694;2023-10-13T02:22:43;47.50;;;22.17;;
77146;SDS011;66121;52.584;9.694;2023-10-13T02:25:35;51.83;;;22.92;;
77146;SDS011;66121;52.584;9.694;2023-10-13T02:28:28;52.85;;;24.35;;
77146;SDS011;66121;52.584;9.694;2023-10-13T02:31:16;53.72;;;23.60;;
77146;SDS011;66121;52.584;9.694;2023-10-13T02:34:03;53.50;;;24.88;;
77146;SDS011;66121;52.584;9.694;2023-10-13T02:36:57;54.90;;;24.90;;
77146;SDS011;66121;52.584;9.694;2023-10-13T02:39:42;55.53;;;23.95;;
77146;SDS011;66121;52.584;9.694;2023-10-13T02:42:28;60.13;;;25.55;;
77146;SDS011;66121;52.584;9.694;2023-10-13T02:45:14;52.45;;;22.92;;
77146;SDS011;66121;52.584;9.694;2023-10-13T02:48:00;54.25;;;25.50;;
77146;SDS011;66121;52.584;9.694;2023-10-13T02:51:07;56.88;;;25.48;;
77146;SDS011;66121;52.584;9.694;2023-10-13T02:54:00;51.83;;;25.38;;
77146;SDS011;66121;52.584;9.694;2023-10-13T02:56:57;58.60;;;26.45;;
77146;SDS011;66121;52.584;9.694;2023-10-13T02:59:44;57.15;;;25.75;;
77146;SDS011;66121;52.584;9.694;2023-10-13T03:02:41;57.97;;;27.30;;
77146;SDS011;66121;52.584;9.694;2023-10-13T03:05:34;58.97;;;26.23;;
77146;SDS011;66121;52.584;9.694;2023-10-13T03:08:20;49.15;;;25.85;;
77146;SDS011;66121;52.584;9.694;2023-10-13T03:11:12;54.60;;;25.73;;
77146;SDS011;66121;52.584;9.694;2023-10-13T03:13:59;52.80;;;24.20;;
77146;SDS011;66121;52.584;9.694;2023-10-13T03:16:45;50.00;;;24.20;;
77146;SDS011;66121;52.584;9.694;2023-10-13T03:19:31;54.15;;;25.25;;
77146;SDS011;66121;52.584;9.694;2023-10-13T03:22:22;51.33;;;25.20;;
77146;SDS011;66121;52.584;9.694;2023-10-13T03:25:17;52.35;;;24.63;;
77146;SDS011;66121;52.584;9.694;2023-10-13T03:28:15;51.47;;;25.02;;
77146;SDS011;66121;52.584;9.694;2023-10-13T03:31:03;52.72;;;25.23;;
77146;SDS011;66121;52.584;9.694;2023-10-13T03:33:49;55.10;;;25.55;;
77146;SDS011;66121;52.584;9.694;2023-10-13T03:36:42;50.00;;;25.00;;
77146;SDS011;66121;52.584;9.694;2023-10-13T03:39:43;50.85;;;24.52;;
77146;SDS011;66121;52.584;9.694;2023-10-13T03:42:30;48.72;;;22.55;;
77146;SDS011;66121;52.584;9.694;2023-10-13T03:45:17;50.40;;;25.92;;
77146;SDS011;66121;52.584;9.694;2023-10-13T03:48:04;48.97;;;25.05;;
77146;SDS011;66121;52.584;9.694;2023-10-13T03:50:55;52.50;;;24.92;;
77146;SDS011;66121;52.584;9.694;2023-10-13T03:53:56;46.58;;;24.05;;
77146;SDS011;66121;52.584;9.694;2023-10-13T03:56:42;47.63;;;24.60;;
77146;SDS011;66121;52.584;9.694;2023-10-13T03:59:29;49.13;;;26.70;;
77146;SDS011;66121;52.584;9.694;2023-10-13T04:02:20;44.25;;;22.92;;
77146;SDS011;66121;52.584;9.694;2023-10-13T04:05:06;45.10;;;23.60;;
77146;SDS011;66121;52.584;9.694;2023-10-13T04:08:01;40.03;;;22.58;;
77146;SDS011;66121;52.584;9.694;2023-10-13T04:14:10;45.35;;;23.33;;
77146;SDS011;66121;52.584;9.694;2023-10-13T04:17:07;40.95;;;21.45;;
77146;SDS011;66121;52.584;9.694;2023-10-13T04:19:59;41.88;;;22.20;;
77146;SDS011;66121;52.584;9.694;2023-10-13T04:22:51;41.50;;;21.13;;
77146;SDS011;66121;52.584;9.694;2023-10-13T04:25:37;35.97;;;21.33;;
77146;SDS011;66121;52.584;9.694;2023-10-13T04:28:28;37.28;;;20.92;;
77146;SDS011;66121;52.584;9.694;2023-10-13T04:31:20;38.20;;;20.92;;
77146;SDS011;66121;52.584;9.694;2023-10-13T04:34:31;36.75;;;20.17;;
77146;SDS011;66121;52.584;9.694;2023-10-13T04:37:25;32.45;;;19.85;;
77146;SDS011;66121;52.584;9.694;2023-10-13T04:40:33;34.47;;;20.75;;
77146;SDS011;66121;52.584;9.694;2023-10-13T04:43:21;34.22;;;19.95;;
77146;SDS011;66121;52.584;9.694;2023-10-13T04:46:39;30.60;;;18.17;;
77146;SDS011;66121;52.584;9.694;2023-10-13T04:49:39;30.58;;;18.00;;
77146;SDS011;66121;52.584;9.694;2023-10-13T04:52:31;32.72;;;18.77;;
77146;SDS011;66121;52.584;9.694;2023-10-13T04:55:43;31.73;;;19.20;;
77146;SDS011;66121;52.584;9.694;2023-10-13T04:58:45;31.17;;;19.02;;
77146;SDS011;66121;52.584;9.694;2023-10-13T05:01:49;36.13;;;18.52;;
77146;SDS011;66121;52.584;9.694;2023-10-13T05:07:51;30.27;;;17.27;;
77146;SDS011;66121;52.584;9.694;2023-10-13T05:10:56;33.72;;;19.40;;
77146;SDS011;66121;52.584;9.694;2023-10-13T05:14:00;31.40;;;17.52;;
77146;SDS011;66121;52.584;9.694;2023-10-13T05:17:04;29.90;;;19.05;;
77146;SDS011;66121;52.584;9.694;2023-10-13T05:20:09;28.58;;;18.10;;
77146;SDS011;66121;52.584;9.694;2023-10-13T05:23:13;32.10;;;18.48;;
77146;SDS011;66121;52.584;9.694;2023-10-13T05:26:17;30.50;;;18.00;;
77146;SDS011;66121;52.584;9.694;2023-10-13T05:29:22;30.35;;;17.83;;
77146;SDS011;66121;52.584;9.694;2023-10-13T05:32:26;31.92;;;17.88;;
77146;SDS011;66121;52.584;9.694;2023-10-13T05:35:30;28.40;;;16.98;;
77146;SDS011;66121;52.584;9.694;2023-10-13T05:38:35;30.17;;;17.90;;
77146;SDS011;66121;52.584;9.694;2023-10-13T05:41:39;29.98;;;17.27;;
77146;SDS011;66121;52.584;9.694;2023-10-13T05:44:43;34.03;;;17.30;;
77146;SDS011;66121;52.584;9.694;2023-10-13T05:47:46;30.13;;;17.00;;
77146;SDS011;66121;52.584;9.694;2023-10-13T05:50:32;29.90;;;17.40;;
77146;SDS011;66121;52.584;9.694;2023-10-13T05:53:38;28.52;;;17.58;;
77146;SDS011;66121;52.584;9.694;2023-10-13T05:56:55;30.88;;;17.80;;
77146;SDS011;66121;52.584;9.694;2023-10-13T06:03:04;26.10;;;15.77;;
77146;SDS011;66121;52.584;9.694;2023-10-13T06:06:08;33.67;;;16.80;;
77146;SDS011;66121;52.584;9.694;2023-10-13T06:09:13;33.38;;;15.57;;
77146;SDS011;66121;52.584;9.694;2023-10-13T06:12:16;30.48;;;16.80;;
77146;SDS011;66121;52.584;9.694;2023-10-13T06:15:21;25.95;;;15.50;;
77146;SDS011;66121;52.584;9.694;2023-10-13T06:18:25;28.88;;;16.77;;
77146;SDS011;66121;52.584;9.694;2023-10-13T06:21:30;29.80;;;16.65;;
77146;SDS011;66121;52.584;9.694;2023-10-13T06:24:34;27.70;;;16.48;;
77146;SDS011;66121;52.584;9.694;2023-10-13T06:27:38;27.23;;;15.90;;
77146;SDS011;66121;52.584;9.694;2023-10-13T06:30:42;26.17;;;15.25;;
77146;SDS011;66121;52.584;9.694;2023-10-13T06:33:32;28.77;;;15.15;;
77146;SDS011;66121;52.584;9.694;2023-10-13T06:36:29;28.45;;;14.65;;
77146;SDS011;66121;52.584;9.694;2023-10-13T06:39:15;26.38;;;15.07;;
77146;SDS011;66121;52.584;9.694;2023-10-13T06:42:19;25.40;;;13.60;;
77146;SDS011;66121;52.584;9.694;2023-10-13T06:45:05;24.33;;;13.20;;
77146;SDS011;66121;52.584;9.694;2023-10-13T06:47:53;22.55;;;12.43;;
77146;SDS011;66121;52.584;9.694;2023-10-13T06:50:47;24.60;;;11.77;;
77146;SDS011;66121;52.584;9.694;2023-10-13T06:53:33;21.90;;;12.93;;
77146;SDS011;66121;52.584;9.694;2023-10-13T06:56:22;19.23;;;12.43;;
77146;SDS011;66121;52.584;9.694;2023-10-13T06:59:12;20.08;;;11.32;;
77146;SDS011;66121;52.584;9.694;2023-10-13T07:01:59;20.42;;;12.82;;
77146;SDS011;66121;52.584;9.694;2023-10-13T07:04:50;19.38;;;11.43;;
77146;SDS011;66121;52.584;9.694;2023-10-13T07:07:52;18.50;;;10.05;;
77146;SDS011;66121;52.584;9.694;2023-10-13T07:13:37;14.48;;;9.93;;
77146;SDS011;66121;52.584;9.694;2023-10-13T07:16:24;16.35;;;9.52;;
77146;SDS011;66121;52.584;9.694;2023-10-13T07:19:09;17.60;;;8.50;;
77146;SDS011;66121;52.584;9.694;2023-10-13T07:21:56;14.55;;;8.52;;
77146;SDS011;66121;52.584;9.694;2023-10-13T07:24:49;14.35;;;9.18;;
77146;SDS011;66121;52.584;9.694;2023-10-13T07:27:36;15.35;;;8.73;;
77146;SDS011;66121;52.584;9.694;2023-10-13T07:30:22;12.15;;;8.23;;
77146;SDS011;66121;52.584;9.694;2023-10-13T07:33:11;12.07;;;7.57;;
77146;SDS011;66121;52.584;9.694;2023-10-13T07:36:04;16.13;;;8.88;;
77146;SDS011;66121;52.584;9.694;2023-10-13T07:39:13;17.40;;;9.50;;
77146;SDS011;66121;52.584;9.694;2023-10-13T07:42:09;24.85;;;15.40;;
77146;SDS011;66121;52.584;9.694;2023-10-13T07:45:05;32.25;;;17.73;;
77146;SDS011;66121;52.584;9.694;2023-10-13T07:47:51;33.53;;;19.45;;
77146;SDS011;66121;52.584;9.694;2023-10-13T07:50:40;32.00;;;18.67;;
77146;SDS011;66121;52.584;9.694;2023-10-13T07:53:26;31.73;;;17.23;;
77146;SDS011;66121;52.584;9.694;2023-10-13T07:56:15;27.73;;;15.65;;
77146;SDS011;66121;52.584;9.694;2023-10-13T07:59:04;26.38;;;14.18;;
77146;SDS011;66121;52.584;9.694;2023-10-13T08:01:51;19.30;;;12.63;;
77146;SDS011;66121;52.584;9.694;2023-10-13T08:04:57;19.38;;;12.73;;
77146;SDS011;66121;52.584;9.694;2023-10-13T08:07:43;20.48;;;12.90;;
77146;SDS011;66121;52.584;9.694;2023-10-13T08:10:34;19.02;;;11.82;;
77146;SDS011;66121;52.584;9.694;2023-10-13T08:13:21;17.50;;;11.70;;
77146;SDS011;66121;52.584;9.694;2023-10-13T08:16:08;18.67;;;11.55;;
77146;SDS011;66121;52.584;9.694;2023-10-13T08:18:54;20.95;;;12.90;;
77146;SDS011;66121;52.584;9.694;2023-10-13T08:21:40;17.33;;;10.98;;
77146;SDS011;66121;52.584;9.694;2023-10-13T08:24:34;19.35;;;10.98;;
77146;SDS011;66121;52.584;9.694;2023-10-13T08:27:23;17.00;;;10.75;;
77146;SDS011;66121;52.584;9.694;2023-10-13T08:30:19;22.58;;;10.98;;
77146;SDS011;66121;52.584;9.694;2023-10-13T08:33:11;18.45;;;10.07;;
77146;SDS011;66121;52.584;9.694;2023-10-13T08:36:03;14.77;;;8.65;;
77146;SDS011;66121;52.584;9.694;2023-10-13T08:39:12;13.63;;;7.38;;
77146;SDS011;66121;52.584;9.694;2023-10-13T08:42:08;12.75;;;7.55;;
77146;SDS011;66121;52.584;9.694;2023-10-13T08:45:01;8.57;;;5.47;;
77146;SDS011;66121;52.584;9.694;2023-10-13T08:48:06;10.48;;;7.03;;
77146;SDS011;66121;52.584;9.694;2023-10-13T08:51:00;10.50;;;7.05;;
77146;SDS011;66121;52.584;9.694;2023-10-13T08:53:50;11.07;;;6.40;;
77146;SDS011;66121;52.584;9.694;2023-10-13T08:56:43;14.38;;;6.88;;
77146;SDS011;66121;52.584;9.694;2023-10-13T08:59:33;11.88;;;7.18;;
77146;SDS011;66121;52.584;9.694;2023-10-13T09:02:24;8.57;;;6.15;;
77146;SDS011;66121;52.584;9.694;2023-10-13T09:08:51;9.18;;;5.10;;
77146;SDS011;66121;52.584;9.694;2023-10-13T09:11:50;12.60;;;6.32;;
77146;SDS011;66121;52.584;9.694;2023-10-13T09:14:39;9.27;;;5.88;;
77146;SDS011;66121;52.584;9.694;2023-10-13T09:17:30;9.00;;;5.28;;
77146;SDS011;66121;52.584;9.694;2023-10-13T09:20:28;6.28;;;4.47;;
77146;SDS011;66121;52.584;9.694;2023-10-13T09:23:28;9.18;;;5.47;;
77146;SDS011;66121;52.584;9.694;2023-10-13T09:26:33;9.32;;;4.88;;
77146;SDS011;66121;52.584;9.694;2023-10-13T09:29:21;10.98;;;5.63;;
77146;SDS011;66121;52.584;9.694;2023-10-13T09:32:09;7.38;;;4.70;;
77146;SDS011;66121;52.584;9.694;2023-10-13T09:35:01;9.52;;;4.60;;
77146;SDS011;66121;52.584;9.694;2023-10-13T09:37:48;8.40;;;4.85;;
77146;SDS011;66121;52.584;9.694;2023-10-13T09:40:35;10.98;;;4.80;;
77146;SDS011;66121;52.584;9.694;2023-10-13T09:43:23;11.18;;;5.03;;
77146;SDS011;66121;52.584;9.694;2023-10-13T09:46:10;10.85;;;4.97;;
77146;SDS011;66121;52.584;9.694;2023-10-13T09:49:05;10.63;;;4.40;;
77146;SDS011;66121;52.584;9.694;2023-10-13T09:52:00;7.22;;;4.20;;
77146;SDS011;66121;52.584;9.694;2023-10-13T09:58:14;11.32;;;4.47;;
77146;SDS011;66121;52.584;9.694;2023-10-13T10:01:14;8.00;;;4.15;;
77146;SDS011;66121;52.584;9.694;2023-10-13T10:04:07;8.88;;;4.15;;
77146;SDS011;66121;52.584;9.694;2023-10-13T10:07:02;8.48;;;4.18;;
77146;SDS011;66121;52.584;9.694;2023-10-13T10:09:55;6.57;;;3.65;;
77146;SDS011;66121;52.584;9.694;2023-10-13T10:12:43;7.72;;;4.15;;
77146;SDS011;66121;52.584;9.694;2023-10-13T10:15:46;8.63;;;3.80;;
77146;SDS011;66121;52.584;9.694;2023-10-13T10:18:32;7.70;;;4.20;;
77146;SDS011;66121;52.584;9.694;2023-10-13T10:21:18;8.07;;;4.22;;
77146;SDS011;66121;52.584;9.694;2023-10-13T10:24:16;8.23;;;5.15;;
77146;SDS011;66121;52.584;9.694;2023-10-13T10:27:26;10.07;;;4.13;;
77146;SDS011;66121;52.584;9.694;2023-10-13T10:30:23;10.18;;;4.15;;
77146;SDS011;66121;52.584;9.694;2023-10-13T10:33:10;7.35;;;3.92;;
77146;SDS011;66121;52.584;9.694;2023-10-13T10:36:01;7.90;;;3.97;;
77146;SDS011;66121;52.584;9.694;2023-10-13T10:38:53;10.18;;;4.35;;
77146;SDS011;66121;52.584;9.694;2023-10-13T10:41:45;9.40;;;4.35;;
77146;SDS011;66121;52.584;9.694;2023-10-13T10:44:40;9.73;;;3.83;;
77146;SDS011;66121;52.584;9.694;2023-10-13T10:47:28;7.00;;;4.15;;
77146;SDS011;66121;52.584;9.694;2023-10-13T10:50:24;6.18;;;3.78;;
77146;SDS011;66121;52.584;9.694;2023-10-13T10:53:22;9.10;;;3.85;;
77146;SDS011;66121;52.584;9.694;2023-10-13T10:56:21;11.05;;;3.97;;
77146;SDS011;66121;52.584;9.694;2023-10-13T10:59:10;8.77;;;3.92;;
77146;SDS011;66121;52.584;9.694;2023-10-13T11:02:05;6.95;;;3.60;;
77146;SDS011;66121;52.584;9.694;2023-10-13T11:04:54;10.82;;;4.07;;
77146;SDS011;66121;52.584;9.694;2023-10-13T11:07:44;8.77;;;3.78;;
77146;SDS011;66121;52.584;9.694;2023-10-13T11:10:32;9.77;;;4.47;;
77146;SDS011;66121;52.584;9.694;2023-10-13T11:13:17;10.55;;;4.70;;
77146;SDS011;66121;52.584;9.694;2023-10-13T11:16:07;10.00;;;4.13;;
77146;SDS011;66121;52.584;9.694;2023-10-13T11:19:03;9.95;;;4.00;;
77146;SDS011;66121;52.584;9.694;2023-10-13T11:21:51;9.50;;;4.10;;
77146;SDS011;66121;52.584;9.694;2023-10-13T11:24:41;12.30;;;5.00;;
77146;SDS011;66121;52.584;9.694;2023-10-13T11:27:28;11.68;;;4.88;;
77146;SDS011;66121;52.584;9.694;2023-10-13T11:30:34;10.70;;;4.93;;
77146;SDS011;66121;52.584;9.694;2023-10-13T11:33:23;13.85;;;5.28;;
77146;SDS011;66121;52.584;9.694;2023-10-13T11:36:11;10.50;;;4.70;;
77146;SDS011;66121;52.584;9.694;2023-10-13T11:39:02;12.55;;;4.57;;
77146;SDS011;66121;52.584;9.694;2023-10-13T11:41:52;10.07;;;4.18;;
77146;SDS011;66121;52.584;9.694;2023-10-13T11:44:41;14.77;;;5.03;;
77146;SDS011;66121;52.584;9.694;2023-10-13T11:47:28;10.48;;;5.10;;
77146;SDS011;66121;52.584;9.694;2023-10-13T11:50:33;15.27;;;7.28;;
77146;SDS011;66121;52.584;9.694;2023-10-13T11:53:20;12.75;;;5.32;;
77146;SDS011;66121;52.584;9.694;2023-10-13T11:56:06;16.42;;;5.60;;
77146;SDS011;66121;52.584;9.694;2023-10-13T11:58:55;15.75;;;4.65;;
77146;SDS011;66121;52.584;9.694;2023-10-13T12:01:47;8.10;;;4.32;;
77146;SDS011;66121;52.584;9.694;2023-10-13T12:04:52;12.70;;;4.50;;
77146;SDS011;66121;52.584;9.694;2023-10-13T12:07:40;9.10;;;3.63;;
77146;SDS011;66121;52.584;9.694;2023-10-13T12:13:21;14.85;;;4.75;;
77146;SDS011;66121;52.584;9.694;2023-10-13T12:16:07;10.35;;;4.25;;
77146;SDS011;66121;52.584;9.694;2023-10-13T12:18:55;10.00;;;4.43;;
77146;SDS011;66121;52.584;9.694;2023-10-13T12:21:41;17.02;;;5.88;;
77146;SDS011;66121;52.584;9.694;2023-10-13T12:24:28;14.40;;;4.82;;
77146;SDS011;66121;52.584;9.694;2023-10-13T12:27:20;14.82;;;6.35;;
77146;SDS011;66121;52.584;9.694;2023-10-13T12:30:12;15.85;;;5.13;;
77146;SDS011;66121;52.584;9.694;2023-10-13T12:32:59;9.25;;;4.32;;
77146;SDS011;66121;52.584;9.694;2023-10-13T12:35:57;12.88;;;4.20;;
77146;SDS011;66121;52.584;9.694;2023-10-13T12:39:12;10.07;;;4.75;;
77146;SDS011;66121;52.584;9.694;2023-10-13T12:42:17;17.25;;;5.40;;
77146;SDS011;66121;52.584;9.694;2023-10-13T12:45:22;12.18;;;5.03;;
77146;SDS011;66121;52.584;9.694;2023-10-13T12:48:26;12.45;;;5.30;;
77146;SDS011;66121;52.584;9.694;2023-10-13T12:51:30;15.82;;;5.30;;
77146;SDS011;66121;52.584;9.694;2023-10-13T12:54:16;12.30;;;4.55;;
77146;SDS011;66121;52.584;9.694;2023-10-13T12:57:20;14.38;;;4.45;;
77146;SDS011;66121;52.584;9.694;2023-10-13T13:00:09;11.02;;;4.93;;
77146;SDS011;66121;52.584;9.694;2023-10-13T13:03:03;13.90;;;5.45;;
77146;SDS011;66121;52.584;9.694;2023-10-13T13:05:56;15.55;;;5.32;;
77146;SDS011;66121;52.584;9.694;2023-10-13T13:08:42;16.98;;;5.65;;
77146;SDS011;66121;52.584;9.694;2023-10-13T13:11:29;12.18;;;5.60;;
77146;SDS011;66121;52.584;9.694;2023-10-13T13:14:15;11.18;;;5.05;;
77146;SDS011;66121;52.584;9.694;2023-10-13T13:17:00;11.70;;;5.15;;
77146;SDS011;66121;52.584;9.694;2023-10-13T13:19:52;14.13;;;5.35;;
77146;SDS011;66121;52.584;9.694;2023-10-13T13:22:39;13.38;;;5.80;;
77146;SDS011;66121;52.584;9.694;2023-10-13T13:25:24;14.50;;;5.70;;
77146;SDS011;66121;52.584;9.694;2023-10-13T13:28:15;22.45;;;5.97;;
77146;SDS011;66121;52.584;9.694;2023-10-13T13:31:01;14.50;;;4.90;;
77146;SDS011;66121;52.584;9.694;2023-10-13T13:33:46;12.95;;;5.57;;
77146;SDS011;66121;52.584;9.694;2023-10-13T13:36:32;13.20;;;4.93;;
77146;SDS011;66121;52.584;9.694;2023-10-13T13:39:20;12.25;;;5.05;;
77146;SDS011;66121;52.584;9.694;2023-10-13T13:42:14;20.90;;;6.28;;
77146;SDS011;66121;52.584;9.694;2023-10-13T13:45:02;11.65;;;5.30;;
77146;SDS011;66121;52.584;9.694;2023-10-13T13:47:48;15.98;;;5.68;;
77146;SDS011;66121;52.584;9.694;2023-10-13T13:50:41;15.57;;;5.25;;
77146;SDS011;66121;52.584;9.694;2023-10-13T13:53:26;14.93;;;5.63;;
77146;SDS011;66121;52.584;9.694;2023-10-13T13:56:13;19.70;;;5.40;;
77146;SDS011;66121;52.584;9.694;2023-10-13T13:59:01;15.27;;;5.40;;
77146;SDS011;66121;52.584;9.694;2023-10-13T14:01:53;17.73;;;4.65;;
77146;SDS011;66121;52.584;9.694;2023-10-13T14:04:47;23.00;;;6.60;;
77146;SDS011;66121;52.584;9.694;2023-10-13T14:07:35;17.63;;;5.38;;
77146;SDS011;66121;52.584;9.694;2023-10-13T14:10:21;14.85;;;5.60;;
77146;SDS011;66121;52.584;9.694;2023-10-13T14:13:39;15.05;;;5.18;;
77146;SDS011;66121;52.584;9.694;2023-10-13T14:16:34;17.60;;;5.47;;
77146;SDS011;66121;52.584;9.694;2023-10-13T14:19:22;16.08;;;5.75;;
77146;SDS011;66121;52.584;9.694;2023-10-13T14:22:14;16.88;;;5.60;;
77146;SDS011;66121;52.584;9.694;2023-10-13T14:25:00;11.50;;;5.03;;
77146;SDS011;66121;52.584;9.694;2023-10-13T14:27:54;15.25;;;5.80;;
77146;SDS011;66121;52.584;9.694;2023-10-13T14:30:43;15.50;;;5.60;;
77146;SDS011;66121;52.584;9.694;2023-10-13T14:33:29;15.63;;;5.53;;
77146;SDS011;66121;52.584;9.694;2023-10-13T14:36:16;17.60;;;6.05;;
77146;SDS011;66121;52.584;9.694;2023-10-13T14:39:05;18.50;;;5.40;;
77146;SDS011;66121;52.584;9.694;2023-10-13T14:41:54;18.08;;;7.55;;
77146;SDS011;66121;52.584;9.694;2023-10-13T14:44:40;17.83;;;5.95;;
77146;SDS011;66121;52.584;9.694;2023-10-13T14:47:25;12.68;;;5.55;;
77146;SDS011;66121;52.584;9.694;2023-10-13T14:50:11;14.98;;;6.07;;
77146;SDS011;66121;52.584;9.694;2023-10-13T14:53:07;15.85;;;6.10;;
77146;SDS011;66121;52.584;9.694;2023-10-13T14:55:52;12.23;;;5.05;;
77146;SDS011;66121;52.584;9.694;2023-10-13T14:58:40;21.85;;;6.22;;
77146;SDS011;66121;52.584;9.694;2023-10-13T15:01:27;10.95;;;5.55;;
77146;SDS011;66121;52.584;9.694;2023-10-13T15:04:13;14.07;;;5.20;;
77146;SDS011;66121;52.584;9.694;2023-10-13T15:06:59;12.32;;;5.22;;
77146;SDS011;66121;52.584;9.694;2023-10-13T15:09:48;14.10;;;5.13;;
77146;SDS011;66121;52.584;9.694;2023-10-13T15:12:34;11.68;;;5.13;;
77146;SDS011;66121;52.584;9.694;2023-10-13T15:15:20;13.73;;;5.22;;
77146;SDS011;66121;52.584;9.694;2023-10-13T15:18:05;13.55;;;6.03;;
77146;SDS011;66121;52.584;9.694;2023-10-13T15:20:51;15.75;;;5.38;;
77146;SDS011;66121;52.584;9.694;2023-10-13T15:23:36;11.27;;;5.28;;
77146;SDS011;66121;52.584;9.694;2023-10-13T15:26:27;11.43;;;5.50;;
77146;SDS011;66121;52.584;9.694;2023-10-13T15:32:04;11.75;;;5.80;;
77146;SDS011;66121;52.584;9.694;2023-10-13T15:35:10;17.30;;;5.90;;
77146;SDS011;66121;52.584;9.694;2023-10-13T15:37:57;16.15;;;5.97;;
77146;SDS011;66121;52.584;9.694;2023-10-13T15:40:44;14.40;;;5.95;;
77146;SDS011;66121;52.584;9.694;2023-10-13T15:43:32;18.70;;;6.18;;
77146;SDS011;66121;52.584;9.694;2023-10-13T15:46:18;19.52;;;6.03;;
77146;SDS011;66121;52.584;9.694;2023-10-13T15:49:08;13.80;;;6.53;;
77146;SDS011;66121;52.584;9.694;2023-10-13T15:51:53;15.25;;;5.70;;
77146;SDS011;66121;52.584;9.694;2023-10-13T15:54:41;17.60;;;5.75;;
77146;SDS011;66121;52.584;9.694;2023-10-13T15:57:27;15.85;;;5.95;;
77146;SDS011;66121;52.584;9.694;2023-10-13T16:00:12;10.98;;;5.28;;
77146;SDS011;66121;52.584;9.694;2023-10-13T16:03:10;15.32;;;5.32;;
77146;SDS011;66121;52.584;9.694;2023-10-13T16:05:57;10.48;;;5.70;;
77146;SDS011;66121;52.584;9.694;2023-10-13T16:08:42;14.05;;;4.95;;
77146;SDS011;66121;52.584;9.694;2023-10-13T16:11:28;20.88;;;6.53;;
77146;SDS011;66121;52.584;9.694;2023-10-13T16:14:14;15.73;;;5.20;;
77146;SDS011;66121;52.584;9.694;2023-10-13T16:17:03;16.85;;;5.97;;
77146;SDS011;66121;52.584;9.694;2023-10-13T16:19:50;8.90;;;5.35;;
77146;SDS011;66121;52.584;9.694;2023-10-13T16:22:35;20.02;;;5.80;;
77146;SDS011;66121;52.584;9.694;2023-10-13T16:25:21;16.90;;;5.85;;
77146;SDS011;66121;52.584;9.694;2023-10-13T16:28:09;16.05;;;5.65;;
77146;SDS011;66121;52.584;9.694;2023-10-13T16:30:57;16.60;;;5.68;;
77146;SDS011;66121;52.584;9.694;2023-10-13T16:33:43;16.73;;;5.88;;
77146;SDS011;66121;52.584;9.694;2023-10-13T16:36:29;14.85;;;5.30;;
77146;SDS011;66121;52.584;9.694;2023-10-13T16:39:16;14.25;;;4.85;;
77146;SDS011;66121;52.584;9.694;2023-10-13T16:42:01;17.90;;;5.63;;
77146;SDS011;66121;52.584;9.694;2023-10-13T16:44:52;17.33;;;4.82;;
77146;SDS011;66121;52.584;9.694;2023-10-13T16:47:39;20.20;;;5.35;;
77146;SDS011;66121;52.584;9.694;2023-10-13T16:50:27;13.45;;;5.13;;
77146;SDS011;66121;52.584;9.694;2023-10-13T16:53:16;12.88;;;6.00;;
77146;SDS011;66121;52.584;9.694;2023-10-13T16:56:02;14.70;;;5.40;;
77146;SDS011;66121;52.584;9.694;2023-10-13T16:58:48;19.02;;;5.75;;
77146;SDS011;66121;52.584;9.694;2023-10-13T17:01:34;16.90;;;6.53;;
77146;SDS011;66121;52.584;9.694;2023-10-13T17:04:19;18.17;;;5.53;;
77146;SDS011;66121;52.584;9.694;2023-10-13T17:07:06;19.17;;;5.80;;
77146;SDS011;66121;52.584;9.694;2023-10-13T17:09:52;22.75;;;5.82;;
77146;SDS011;66121;52.584;9.694;2023-10-13T17:12:42;14.02;;;5.30;;
77146;SDS011;66121;52.584;9.694;2023-10-13T17:15:31;16.95;;;5.80;;
77146;SDS011;66121;52.584;9.694;2023-10-13T17:18:18;21.40;;;6.28;;
77146;SDS011;66121;52.584;9.694;2023-10-13T17:21:12;19.10;;;5.38;;